createdAt,value
2022-11-30T00:00:12.811Z,48
2022-11-30T00:01:12.801Z,46
2022-11-30T00:02:12.980Z,49
2022-11-30T00:03:13.002Z,44
2022-11-30T00:04:12.814Z,47
2022-11-30T00:05:12.822Z,46
2022-11-30T00:06:12.793Z,47
2022-11-30T00:07:12.808Z,46
2022-11-30T00:08:12.805Z,47
2022-11-30T00:09:12.810Z,45
2022-11-30T00:10:12.793Z,39
2022-11-30T00:11:12.807Z,47
2022-11-30T00:12:12.802Z,50
2022-11-30T00:13:12.819Z,47
2022-11-30T00:14:12.805Z,45
2022-11-30T00:15:12.795Z,41
2022-11-30T00:16:12.991Z,43
2022-11-30T00:17:12.793Z,40
2022-11-30T00:18:12.794Z,40
2022-11-30T00:19:12.818Z,41
2022-11-30T00:20:12.815Z,38
2022-11-30T00:21:12.826Z,37
2022-11-30T00:22:12.801Z,38
2022-11-30T00:23:12.813Z,39
2022-11-30T00:24:12.803Z,37
2022-11-30T00:25:12.842Z,35
2022-11-30T00:26:12.830Z,37
2022-11-30T00:28:12.805Z,37
2022-11-30T00:29:12.809Z,34
2022-11-30T00:30:12.801Z,33
2022-11-30T00:32:12.817Z,33
2022-11-30T00:33:12.801Z,31
2022-11-30T00:34:12.796Z,36
2022-11-30T00:35:12.797Z,35
2022-11-30T00:36:12.805Z,29
2022-11-30T00:37:12.798Z,34
2022-11-30T00:38:12.809Z,34
2022-11-30T00:39:12.819Z,31
2022-11-30T00:40:12.841Z,34
2022-11-30T00:41:12.824Z,36
2022-11-30T00:42:12.827Z,35
2022-11-30T00:45:12.809Z,37
2022-11-30T00:46:12.873Z,38
2022-11-30T00:47:12.821Z,34
2022-11-30T00:48:12.807Z,36
2022-11-30T00:49:12.811Z,38
2022-11-30T00:50:12.802Z,36
2022-11-30T00:51:12.840Z,38
2022-11-30T00:53:12.828Z,35
2022-11-30T00:54:12.821Z,40
2022-11-30T00:55:12.800Z,37
2022-11-30T00:56:12.797Z,38
2022-11-30T00:57:12.808Z,40
2022-11-30T00:58:12.825Z,40
2022-11-30T00:59:12.914Z,40
2022-11-30T01:00:12.815Z,42
2022-11-30T01:01:12.895Z,44
2022-11-30T01:02:12.887Z,42
2022-11-30T01:03:12.811Z,41
2022-11-30T01:05:12.831Z,41
2022-11-30T01:07:12.827Z,39
2022-11-30T01:08:12.812Z,37
2022-11-30T01:10:12.805Z,42
2022-11-30T01:11:12.835Z,34
2022-11-30T01:12:12.808Z,34
2022-11-30T01:13:12.828Z,35
2022-11-30T01:15:12.822Z,33
2022-11-30T01:17:12.860Z,32
2022-11-30T01:18:12.810Z,35
2022-11-30T01:19:12.833Z,33
2022-11-30T01:20:12.816Z,35
2022-11-30T01:21:12.817Z,36
2022-11-30T01:22:12.824Z,37
2022-11-30T01:23:12.854Z,32
2022-11-30T01:24:12.832Z,35
2022-11-30T01:25:12.827Z,34
2022-11-30T01:26:12.831Z,37
2022-11-30T01:27:12.827Z,34
2022-11-30T01:28:12.813Z,38
2022-11-30T01:29:12.816Z,37
2022-11-30T01:30:13.464Z,37
2022-11-30T01:31:12.891Z,36
2022-11-30T01:32:12.823Z,41
2022-11-30T01:33:12.842Z,41
2022-11-30T01:34:12.811Z,40
2022-11-30T01:35:12.810Z,37
2022-11-30T01:36:12.803Z,43
2022-11-30T01:37:12.820Z,45
2022-11-30T01:39:12.819Z,42
2022-11-30T01:40:12.813Z,46
2022-11-30T01:41:12.819Z,44
2022-11-30T01:42:12.826Z,44
2022-11-30T01:43:12.813Z,41
2022-11-30T01:44:18.154Z,38
2022-11-30T01:45:12.819Z,42
2022-11-30T01:47:12.822Z,40
2022-11-30T01:48:12.815Z,36
2022-11-30T01:49:12.813Z,39
2022-11-30T01:50:12.815Z,39
2022-11-30T01:52:12.821Z,33
2022-11-30T01:53:12.844Z,39
2022-11-30T01:54:12.820Z,36
2022-11-30T01:55:12.838Z,37
2022-11-30T01:56:12.843Z,38
2022-11-30T01:57:12.833Z,37
2022-11-30T01:58:12.845Z,39
2022-11-30T01:59:12.850Z,39
2022-11-30T02:00:12.828Z,41
2022-11-30T02:02:12.887Z,39
2022-11-30T02:03:12.819Z,40
2022-11-30T02:04:12.963Z,41
2022-11-30T02:05:12.850Z,42
2022-11-30T02:06:12.828Z,38
2022-11-30T02:08:12.971Z,38
2022-11-30T02:09:12.829Z,34
2022-11-30T02:10:12.832Z,38
2022-11-30T02:11:12.846Z,32
2022-11-30T02:12:12.835Z,34
2022-11-30T02:13:12.828Z,36
2022-11-30T02:14:12.828Z,35
2022-11-30T02:15:12.850Z,35
2022-11-30T02:16:12.881Z,34
2022-11-30T02:17:12.823Z,34
2022-11-30T02:18:12.853Z,35
2022-11-30T02:19:12.835Z,35
2022-11-30T02:20:12.842Z,34
2022-11-30T02:22:12.822Z,32
2022-11-30T02:23:12.840Z,32
2022-11-30T02:24:12.838Z,32
2022-11-30T02:25:12.833Z,33
2022-11-30T02:26:12.848Z,33
2022-11-30T02:27:12.846Z,30
2022-11-30T02:28:12.838Z,33
2022-11-30T02:29:12.830Z,32
2022-11-30T02:30:12.862Z,28
2022-11-30T02:31:12.875Z,31
2022-11-30T02:32:12.834Z,32
2022-11-30T02:33:12.847Z,30
2022-11-30T02:34:12.839Z,29
2022-11-30T02:35:12.867Z,30
2022-11-30T02:36:12.828Z,32
2022-11-30T02:37:12.830Z,33
2022-11-30T02:38:12.848Z,27
2022-11-30T02:40:12.836Z,28
2022-11-30T02:43:12.837Z,30
2022-11-30T02:44:12.837Z,32
2022-11-30T02:45:12.842Z,31
2022-11-30T02:46:12.892Z,30
2022-11-30T02:48:12.835Z,32
2022-11-30T02:49:12.835Z,34
2022-11-30T02:50:12.837Z,29
2022-11-30T02:51:12.842Z,30
2022-11-30T02:52:12.877Z,30
2022-11-30T02:53:12.833Z,30
2022-11-30T02:54:12.838Z,29
2022-11-30T02:56:12.846Z,30
2022-11-30T02:57:12.847Z,27
2022-11-30T02:58:12.834Z,29
2022-11-30T02:59:12.834Z,28
2022-11-30T03:00:12.834Z,29
2022-11-30T03:01:12.918Z,29
2022-11-30T03:02:12.861Z,28
2022-11-30T03:03:12.870Z,29
2022-11-30T03:04:12.892Z,29
2022-11-30T03:06:12.877Z,30
2022-11-30T03:07:12.859Z,30
2022-11-30T03:08:12.841Z,28
2022-11-30T03:10:12.843Z,27
2022-11-30T03:11:12.856Z,30
2022-11-30T03:12:13.857Z,29
2022-11-30T03:13:12.845Z,34
2022-11-30T03:14:12.839Z,32
2022-11-30T03:15:12.874Z,33
2022-11-30T03:16:12.933Z,32
2022-11-30T03:17:12.877Z,34
2022-11-30T03:18:12.870Z,33
2022-11-30T03:19:12.861Z,35
2022-11-30T03:20:12.861Z,32
2022-11-30T03:21:12.881Z,32
2022-11-30T03:22:12.851Z,33
2022-11-30T03:23:12.876Z,30
2022-11-30T03:24:12.844Z,31
2022-11-30T03:27:12.868Z,28
2022-11-30T03:28:12.854Z,34
2022-11-30T03:29:12.865Z,32
2022-11-30T03:30:12.863Z,31
2022-11-30T03:31:12.958Z,31
2022-11-30T03:32:12.858Z,33
2022-11-30T03:33:12.886Z,32
2022-11-30T03:34:12.854Z,32
2022-11-30T03:35:12.885Z,32
2022-11-30T03:36:12.859Z,32
2022-11-30T03:37:12.885Z,31
2022-11-30T03:38:12.859Z,32
2022-11-30T03:40:12.855Z,34
2022-11-30T03:41:12.855Z,31
2022-11-30T03:42:12.863Z,32
2022-11-30T03:43:12.857Z,29
2022-11-30T03:44:12.852Z,29
2022-11-30T03:45:12.851Z,31
2022-11-30T03:46:12.940Z,32
2022-11-30T03:48:12.849Z,33
2022-11-30T03:49:12.862Z,33
2022-11-30T03:50:12.855Z,31
2022-11-30T03:51:12.855Z,33
2022-11-30T03:52:12.895Z,32
2022-11-30T03:53:12.852Z,28
2022-11-30T03:54:12.860Z,31
2022-11-30T03:56:12.851Z,28
2022-11-30T03:57:12.849Z,30
2022-11-30T03:58:12.855Z,29
2022-11-30T03:59:12.858Z,28
2022-11-30T04:00:12.868Z,28
2022-11-30T04:01:12.870Z,28
2022-11-30T04:03:12.967Z,27
2022-11-30T04:04:12.894Z,30
2022-11-30T04:05:12.860Z,29
2022-11-30T04:06:12.861Z,30
2022-11-30T04:07:12.912Z,28
2022-11-30T04:09:12.886Z,30
2022-11-30T04:10:12.867Z,27
2022-11-30T04:11:12.860Z,30
2022-11-30T04:12:19.835Z,29
2022-11-30T04:13:12.852Z,31
2022-11-30T04:14:12.861Z,27
2022-11-30T04:15:12.850Z,28
2022-11-30T04:16:12.918Z,26
2022-11-30T04:17:12.870Z,27
2022-11-30T04:18:12.858Z,32
2022-11-30T04:19:12.867Z,27
2022-11-30T04:20:12.862Z,31
2022-11-30T04:21:12.862Z,31
2022-11-30T04:22:12.855Z,26
2022-11-30T04:23:12.858Z,27
2022-11-30T04:24:12.871Z,27
2022-11-30T04:25:12.879Z,31
2022-11-30T04:26:12.872Z,29
2022-11-30T04:27:12.875Z,26
2022-11-30T04:28:12.891Z,29
2022-11-30T04:30:12.870Z,30
2022-11-30T04:31:12.948Z,29
2022-11-30T04:32:12.866Z,30
2022-11-30T04:34:12.877Z,29
2022-11-30T04:35:12.866Z,30
2022-11-30T04:36:12.853Z,27
2022-11-30T04:37:12.861Z,29
2022-11-30T04:38:12.876Z,30
2022-11-30T04:39:12.890Z,27
2022-11-30T04:41:12.876Z,25
2022-11-30T04:42:12.858Z,29
2022-11-30T04:43:12.873Z,28
2022-11-30T04:45:12.872Z,29
2022-11-30T04:46:12.928Z,27
2022-11-30T04:47:12.878Z,35
2022-11-30T04:49:12.878Z,28
2022-11-30T04:50:12.862Z,30
2022-11-30T04:51:12.855Z,31
2022-11-30T04:52:12.866Z,31
2022-11-30T04:53:12.864Z,29
2022-11-30T04:54:12.865Z,30
2022-11-30T04:55:12.885Z,26
2022-11-30T04:56:12.896Z,28
2022-11-30T04:57:12.869Z,27
2022-11-30T04:58:12.868Z,31
2022-11-30T04:59:12.870Z,33
2022-11-30T05:00:12.864Z,31
2022-11-30T05:02:12.899Z,33
2022-11-30T05:03:12.888Z,29
2022-11-30T05:04:12.953Z,27
2022-11-30T05:05:12.887Z,27
2022-11-30T05:06:12.875Z,27
2022-11-30T05:07:12.883Z,27
2022-11-30T05:09:13.195Z,27
2022-11-30T05:10:12.908Z,27
2022-11-30T05:11:12.875Z,27
2022-11-30T05:13:12.902Z,28
2022-11-30T05:14:12.888Z,25
2022-11-30T05:15:12.896Z,26
2022-11-30T05:16:12.951Z,32
2022-11-30T05:17:12.894Z,28
2022-11-30T05:19:12.892Z,27
2022-11-30T05:20:12.878Z,27
2022-11-30T05:21:12.881Z,27
2022-11-30T05:23:12.889Z,26
2022-11-30T05:24:12.874Z,25
2022-11-30T05:25:12.875Z,27
2022-11-30T05:26:12.906Z,29
2022-11-30T05:27:17.906Z,26
2022-11-30T05:28:12.889Z,26
2022-11-30T05:29:12.873Z,26
2022-11-30T05:31:12.944Z,26
2022-11-30T05:32:12.895Z,26
2022-11-30T05:33:12.900Z,25
2022-11-30T05:34:12.903Z,29
2022-11-30T05:36:12.877Z,27
2022-11-30T05:37:12.883Z,27
2022-11-30T05:38:12.888Z,27
2022-11-30T05:39:12.887Z,28
2022-11-30T05:40:12.880Z,27
2022-11-30T05:41:12.914Z,29
2022-11-30T05:42:12.889Z,28
2022-11-30T05:43:12.871Z,28
2022-11-30T05:45:12.876Z,28
2022-11-30T05:46:13.051Z,30
2022-11-30T05:47:12.943Z,27
2022-11-30T05:48:12.918Z,28
2022-11-30T05:49:12.897Z,27
2022-11-30T05:50:12.903Z,26
2022-11-30T05:51:12.954Z,25
2022-11-30T05:52:12.910Z,26
2022-11-30T05:53:12.905Z,26
2022-11-30T05:54:12.904Z,28
2022-11-30T05:55:12.884Z,27
2022-11-30T05:56:12.882Z,27
2022-11-30T05:57:12.884Z,28
2022-11-30T05:58:12.890Z,30
2022-11-30T05:59:12.915Z,28
2022-11-30T06:01:12.879Z,29
2022-11-30T06:02:13.115Z,25
2022-11-30T06:03:13.000Z,27
2022-11-30T06:04:12.899Z,29
2022-11-30T06:05:12.884Z,27
2022-11-30T06:06:12.916Z,28
2022-11-30T06:07:12.977Z,29
2022-11-30T06:08:12.902Z,31
2022-11-30T06:09:12.885Z,27
2022-11-30T06:10:12.895Z,30
2022-11-30T06:11:12.886Z,28
2022-11-30T06:12:12.915Z,27
2022-11-30T06:13:12.895Z,27
2022-11-30T06:14:12.889Z,26
2022-11-30T06:15:12.896Z,26
2022-11-30T06:16:12.953Z,27
2022-11-30T06:17:12.901Z,26
2022-11-30T06:19:12.942Z,28
2022-11-30T06:20:12.902Z,29
2022-11-30T06:21:12.897Z,30
2022-11-30T06:22:12.901Z,26
2022-11-30T06:24:12.942Z,30
2022-11-30T06:25:12.919Z,27
2022-11-30T06:26:12.970Z,27
2022-11-30T06:27:12.916Z,30
2022-11-30T06:28:12.911Z,31
2022-11-30T06:29:12.914Z,28
2022-11-30T06:30:12.917Z,28
2022-11-30T06:31:12.962Z,29
2022-11-30T06:32:12.890Z,29
2022-11-30T06:33:12.918Z,29
2022-11-30T06:35:12.918Z,30
2022-11-30T06:36:12.898Z,30
2022-11-30T06:37:12.920Z,29
2022-11-30T06:38:12.930Z,34
2022-11-30T06:39:12.896Z,31
2022-11-30T06:40:12.905Z,29
2022-11-30T06:41:12.914Z,33
2022-11-30T06:43:12.924Z,28
2022-11-30T06:44:12.913Z,30
2022-11-30T06:45:12.913Z,28
2022-11-30T06:46:13.007Z,29
2022-11-30T06:47:12.916Z,30
2022-11-30T06:48:12.898Z,24
2022-11-30T06:49:12.892Z,28
2022-11-30T06:50:12.917Z,28
2022-11-30T06:51:13.002Z,29
2022-11-30T06:52:12.892Z,26
2022-11-30T06:53:12.906Z,29
2022-11-30T06:54:12.895Z,29
2022-11-30T06:56:12.916Z,29
2022-11-30T06:57:12.908Z,26
2022-11-30T06:58:12.906Z,30
2022-11-30T06:59:12.921Z,29
2022-11-30T07:00:12.904Z,27
2022-11-30T07:01:13.020Z,28
2022-11-30T07:02:17.507Z,25
2022-11-30T07:04:12.943Z,32
2022-11-30T07:05:12.926Z,30
2022-11-30T07:06:12.931Z,27
2022-11-30T07:07:12.922Z,28
2022-11-30T07:08:12.918Z,28
2022-11-30T07:09:12.925Z,30
2022-11-30T07:10:15.921Z,30
2022-11-30T07:11:12.919Z,27
2022-11-30T07:12:12.922Z,10
2022-11-30T07:13:12.920Z,10
2022-11-30T07:14:12.950Z,30
2022-11-30T07:15:12.924Z,27
2022-11-30T07:17:12.908Z,27
2022-11-30T07:18:12.904Z,25
2022-11-30T07:19:12.904Z,27
2022-11-30T07:21:12.913Z,25
2022-11-30T07:22:12.917Z,27
2022-11-30T07:23:12.914Z,24
2022-11-30T07:26:12.904Z,25
2022-11-30T07:27:12.907Z,28
2022-11-30T07:28:12.915Z,29
2022-11-30T07:29:12.924Z,29
2022-11-30T07:30:12.925Z,27
2022-11-30T07:31:16.258Z,28
2022-11-30T07:32:12.974Z,26
2022-11-30T07:33:12.920Z,29
2022-11-30T07:34:12.901Z,10
2022-11-30T07:36:12.914Z,11
2022-11-30T07:37:12.918Z,12
2022-11-30T07:38:12.923Z,15
2022-11-30T07:40:12.929Z,16
2022-11-30T07:41:12.921Z,15
2022-11-30T07:42:12.918Z,17
2022-11-30T07:43:12.950Z,14
2022-11-30T07:44:12.926Z,15
2022-11-30T07:45:12.935Z,15
2022-11-30T07:46:13.006Z,16
2022-11-30T07:47:12.911Z,21
2022-11-30T07:48:12.935Z,22
2022-11-30T07:49:12.925Z,22
2022-11-30T07:50:12.922Z,26
2022-11-30T07:51:12.924Z,27
2022-11-30T07:52:12.941Z,25
2022-11-30T07:53:12.932Z,25
2022-11-30T07:54:12.913Z,25
2022-11-30T07:55:12.931Z,26
2022-11-30T07:57:12.928Z,25
2022-11-30T07:59:12.923Z,24
2022-11-30T08:00:12.919Z,26
2022-11-30T08:01:13.080Z,28
2022-11-30T08:02:13.033Z,27
2022-11-30T08:03:12.918Z,25
2022-11-30T08:04:12.957Z,30
2022-11-30T08:05:12.921Z,25
2022-11-30T08:06:12.924Z,30
2022-11-30T08:07:12.931Z,26
2022-11-30T08:08:12.933Z,25
2022-11-30T08:09:17.831Z,28
2022-11-30T08:10:12.932Z,26
2022-11-30T08:11:12.951Z,29
2022-11-30T08:12:12.939Z,28
2022-11-30T08:13:12.943Z,28
2022-11-30T08:14:12.935Z,28
2022-11-30T08:15:21.268Z,29
2022-11-30T08:16:13.007Z,29
2022-11-30T08:18:12.926Z,29
2022-11-30T08:19:12.943Z,30
2022-11-30T08:20:12.931Z,31
2022-11-30T08:21:12.930Z,28
2022-11-30T08:22:12.939Z,29
2022-11-30T08:23:12.938Z,29
2022-11-30T08:24:13.015Z,29
2022-11-30T08:25:12.952Z,31
2022-11-30T08:26:12.940Z,31
2022-11-30T08:27:12.931Z,28
2022-11-30T08:28:12.935Z,30
2022-11-30T08:29:12.944Z,30
2022-11-30T08:30:12.932Z,27
2022-11-30T08:31:13.016Z,29
2022-11-30T08:32:12.951Z,31
2022-11-30T08:33:12.947Z,31
2022-11-30T08:34:12.946Z,32
2022-11-30T08:35:12.947Z,29
2022-11-30T08:36:12.940Z,28
2022-11-30T08:37:12.932Z,32
2022-11-30T08:39:12.932Z,32
2022-11-30T08:40:12.951Z,30
2022-11-30T08:41:12.952Z,34
2022-11-30T08:42:12.961Z,31
2022-11-30T08:43:12.950Z,29
2022-11-30T08:44:12.941Z,35
2022-11-30T08:45:12.953Z,31
2022-11-30T08:46:42.612Z,32
2022-11-30T08:47:13.052Z,31
2022-11-30T08:48:12.957Z,31
2022-11-30T08:49:21.676Z,32
2022-11-30T08:50:12.955Z,37
2022-11-30T08:51:12.944Z,33
2022-11-30T08:52:17.966Z,31
2022-11-30T08:53:12.946Z,31
2022-11-30T08:54:12.933Z,29
2022-11-30T08:55:12.936Z,36
2022-11-30T08:56:12.928Z,34
2022-11-30T08:57:12.941Z,34
2022-11-30T08:58:12.939Z,35
2022-11-30T09:00:12.977Z,32
2022-11-30T09:01:12.968Z,32
2022-11-30T09:02:12.997Z,31
2022-11-30T09:03:12.935Z,31
2022-11-30T09:04:12.945Z,32
2022-11-30T09:05:13.135Z,35
2022-11-30T09:06:12.960Z,36
2022-11-30T09:07:12.942Z,36
2022-11-30T09:08:12.939Z,38
2022-11-30T09:09:12.942Z,35
2022-11-30T09:10:12.929Z,33
2022-11-30T09:11:12.946Z,34
2022-11-30T09:12:12.954Z,30
2022-11-30T09:13:12.934Z,35
2022-11-30T09:14:12.947Z,33
2022-11-30T09:15:12.942Z,37
2022-11-30T09:16:13.050Z,33
2022-11-30T09:18:12.971Z,31
2022-11-30T09:19:12.953Z,37
2022-11-30T09:21:12.937Z,35
2022-11-30T09:22:12.975Z,37
2022-11-30T09:23:12.946Z,35
2022-11-30T09:24:12.943Z,33
2022-11-30T09:25:12.952Z,34
2022-11-30T09:26:12.951Z,38
2022-11-30T09:27:12.965Z,34
2022-11-30T09:28:12.989Z,35
2022-11-30T09:29:12.955Z,36
2022-11-30T09:30:12.957Z,36
2022-11-30T09:32:12.952Z,36
2022-11-30T09:33:12.949Z,36
2022-11-30T09:34:12.958Z,35
2022-11-30T09:35:13.261Z,38
2022-11-30T09:36:12.992Z,36
2022-11-30T09:37:12.975Z,33
2022-11-30T09:38:12.956Z,38
2022-11-30T09:40:12.949Z,34
2022-11-30T09:41:12.953Z,38
2022-11-30T09:42:12.951Z,35
2022-11-30T09:43:12.960Z,36
2022-11-30T09:44:12.955Z,34
2022-11-30T09:45:12.955Z,36
2022-11-30T09:46:13.012Z,36
2022-11-30T09:47:12.952Z,36
2022-11-30T09:48:12.951Z,33
2022-11-30T09:49:12.973Z,35
2022-11-30T09:50:12.954Z,39
2022-11-30T09:51:13.008Z,36
2022-11-30T09:53:13.012Z,34
2022-11-30T09:54:12.947Z,39
2022-11-30T09:55:12.959Z,43
2022-11-30T09:56:13.075Z,38
2022-11-30T09:57:12.969Z,38
2022-11-30T09:58:12.960Z,39
2022-11-30T09:59:12.954Z,36
2022-11-30T10:00:12.951Z,36
2022-11-30T10:01:13.057Z,38
2022-11-30T10:02:13.097Z,36
2022-11-30T10:03:13.059Z,37
2022-11-30T10:04:12.960Z,38
2022-11-30T10:05:12.958Z,41
2022-11-30T10:06:12.954Z,39
2022-11-30T10:07:12.974Z,39
2022-11-30T10:08:12.976Z,39
2022-11-30T10:09:12.991Z,38
2022-11-30T10:10:31.591Z,40
2022-11-30T10:11:12.973Z,38
2022-11-30T10:12:12.957Z,42
2022-11-30T10:14:12.959Z,37
2022-11-30T10:15:12.951Z,42
2022-11-30T10:16:13.214Z,38
2022-11-30T10:17:12.973Z,42
2022-11-30T10:18:12.956Z,40
2022-11-30T10:19:13.092Z,40
2022-11-30T10:20:12.997Z,41
2022-11-30T10:21:13.041Z,40
2022-11-30T10:22:12.953Z,40
2022-11-30T10:23:12.956Z,39
2022-11-30T10:24:12.963Z,36
2022-11-30T10:25:12.969Z,36
2022-11-30T10:26:13.059Z,42
2022-11-30T10:27:12.986Z,37
2022-11-30T10:28:45.050Z,39
2022-11-30T10:29:12.968Z,39
2022-11-30T10:30:12.963Z,40
2022-11-30T10:31:13.092Z,39
2022-11-30T10:32:12.959Z,37
2022-11-30T10:33:12.970Z,38
2022-11-30T10:34:13.030Z,38
2022-11-30T10:35:13.126Z,35
2022-11-30T10:36:13.117Z,41
2022-11-30T10:37:13.112Z,39
2022-11-30T10:38:12.975Z,41
2022-11-30T10:39:14.483Z,36
2022-11-30T10:40:12.990Z,39
2022-11-30T10:41:12.962Z,36
2022-11-30T10:42:12.971Z,39
2022-11-30T10:43:12.985Z,41
2022-11-30T10:44:12.981Z,37
2022-11-30T10:45:12.984Z,40
2022-11-30T10:46:17.086Z,37
2022-11-30T10:47:12.973Z,40
2022-11-30T10:48:13.370Z,39
2022-11-30T10:49:12.975Z,38
2022-11-30T10:50:12.986Z,38
2022-11-30T10:51:13.050Z,42
2022-11-30T10:52:12.976Z,39
2022-11-30T10:54:12.970Z,37
2022-11-30T10:55:12.975Z,38
2022-11-30T10:56:12.988Z,39
2022-11-30T10:57:12.983Z,41
2022-11-30T10:58:12.985Z,34
2022-11-30T10:59:12.977Z,40
2022-11-30T11:00:12.976Z,36
2022-11-30T11:01:13.036Z,37
2022-11-30T11:02:12.981Z,36
2022-11-30T11:03:13.020Z,39
2022-11-30T11:04:13.146Z,39
2022-11-30T11:05:12.992Z,36
2022-11-30T11:06:13.083Z,37
2022-11-30T11:07:13.026Z,38
2022-11-30T11:08:13.018Z,41
2022-11-30T11:09:12.982Z,41
2022-11-30T11:10:12.971Z,40
2022-11-30T11:11:12.986Z,36
2022-11-30T11:12:12.992Z,39
2022-11-30T11:13:12.987Z,40
2022-11-30T11:14:12.984Z,38
2022-11-30T11:15:12.985Z,40
2022-11-30T11:17:12.997Z,36
2022-11-30T11:18:12.973Z,38
2022-11-30T11:19:12.970Z,37
2022-11-30T11:20:13.004Z,38
2022-11-30T11:22:13.020Z,21
2022-11-30T11:23:12.987Z,21
2022-11-30T11:24:12.982Z,20
2022-11-30T11:25:12.984Z,19
2022-11-30T11:26:12.992Z,32
2022-11-30T11:27:12.982Z,35
2022-11-30T11:28:12.985Z,35
2022-11-30T11:29:12.985Z,31
2022-11-30T11:30:13.084Z,35
2022-11-30T11:31:13.007Z,32
2022-11-30T11:32:12.974Z,32
2022-11-30T11:33:13.829Z,32
2022-11-30T11:34:12.974Z,34
2022-11-30T11:35:12.986Z,32
2022-11-30T11:36:13.002Z,31
2022-11-30T11:37:12.994Z,25
2022-11-30T11:39:12.984Z,30
2022-11-30T11:40:13.043Z,33
2022-11-30T11:41:12.982Z,33
2022-11-30T11:42:16.555Z,35
2022-11-30T11:43:12.997Z,34
2022-11-30T11:44:12.994Z,33
2022-11-30T11:45:13.001Z,32
2022-11-30T11:46:13.089Z,36
2022-11-30T11:47:12.989Z,35
2022-11-30T11:48:12.981Z,38
2022-11-30T11:49:13.000Z,36
2022-11-30T11:50:13.090Z,32
2022-11-30T11:51:13.010Z,31
2022-11-30T11:52:13.127Z,33
2022-11-30T11:53:13.066Z,32
2022-11-30T11:54:13.853Z,35
2022-11-30T11:55:12.978Z,41
2022-11-30T11:56:12.995Z,36
2022-11-30T11:57:13.100Z,35
2022-11-30T11:58:13.034Z,36
2022-11-30T11:59:12.993Z,30
2022-11-30T12:00:16.319Z,42
2022-11-30T12:01:38.686Z,39
2022-11-30T12:02:13.130Z,34
2022-11-30T12:03:13.008Z,35
2022-11-30T12:04:13.108Z,36
2022-11-30T12:05:12.998Z,34
2022-11-30T12:06:13.004Z,36
2022-11-30T12:07:16.703Z,35
2022-11-30T12:08:12.996Z,38
2022-11-30T12:09:12.982Z,35
2022-11-30T12:10:43.541Z,37
2022-11-30T12:11:13.000Z,36
2022-11-30T12:12:13.012Z,34
2022-11-30T12:13:13.001Z,35
2022-11-30T12:14:12.996Z,39
2022-11-30T12:15:13.029Z,35
2022-11-30T12:16:13.023Z,37
2022-11-30T12:17:13.009Z,41
2022-11-30T12:18:19.470Z,35
2022-11-30T12:19:12.999Z,36
2022-11-30T12:20:12.996Z,35
2022-11-30T12:21:12.994Z,34
2022-11-30T12:22:12.998Z,39
2022-11-30T12:23:13.002Z,37
2022-11-30T12:24:13.018Z,40
2022-11-30T12:25:12.996Z,37
2022-11-30T12:26:12.990Z,39
2022-11-30T12:27:12.984Z,40
2022-11-30T12:28:12.998Z,29
2022-11-30T12:29:12.998Z,34
2022-11-30T12:30:13.021Z,34
2022-11-30T12:31:13.051Z,35
2022-11-30T12:32:13.088Z,32
2022-11-30T12:34:13.014Z,33
2022-11-30T12:35:13.003Z,29
2022-11-30T12:36:13.018Z,31
2022-11-30T12:37:12.997Z,26
2022-11-30T12:38:12.999Z,29
2022-11-30T12:39:13.004Z,26
2022-11-30T12:40:12.995Z,29
2022-11-30T12:41:12.986Z,26
2022-11-30T12:42:12.994Z,24
2022-11-30T12:43:13.009Z,24
2022-11-30T12:44:13.008Z,24
2022-11-30T12:45:13.003Z,25
2022-11-30T12:46:13.064Z,23
2022-11-30T12:47:13.012Z,26
2022-11-30T12:48:12.996Z,23
2022-11-30T12:49:13.068Z,24
2022-11-30T12:50:12.992Z,23
2022-11-30T12:51:13.085Z,21
2022-11-30T12:52:13.004Z,24
2022-11-30T12:53:13.020Z,22
2022-11-30T12:54:12.995Z,23
2022-11-30T12:55:13.026Z,21
2022-11-30T12:56:13.000Z,21
2022-11-30T12:57:13.019Z,22
2022-11-30T12:58:13.001Z,20
2022-11-30T12:59:13.011Z,19
2022-11-30T13:00:13.014Z,19
2022-11-30T13:01:13.048Z,23
2022-11-30T13:02:13.046Z,21
2022-11-30T13:03:13.010Z,18
2022-11-30T13:04:12.990Z,20
2022-11-30T13:05:12.999Z,19
2022-11-30T13:06:13.004Z,20
2022-11-30T13:07:13.017Z,20
2022-11-30T13:08:13.018Z,22
2022-11-30T13:09:12.999Z,22
2022-11-30T13:10:13.026Z,19
2022-11-30T13:11:13.000Z,21
2022-11-30T13:12:13.019Z,19
2022-11-30T13:13:13.005Z,19
2022-11-30T13:14:13.009Z,18
2022-11-30T13:15:15.688Z,18
2022-11-30T13:16:13.067Z,19
2022-11-30T13:17:13.006Z,21
2022-11-30T13:18:13.012Z,19
2022-11-30T13:19:13.017Z,21
2022-11-30T13:20:13.016Z,22
2022-11-30T13:21:13.021Z,18
2022-11-30T13:22:13.012Z,20
2022-11-30T13:23:13.022Z,18
2022-11-30T13:24:13.011Z,21
2022-11-30T13:25:13.056Z,17
2022-11-30T13:26:13.059Z,21
2022-11-30T13:27:13.016Z,19
2022-11-30T13:28:13.015Z,21
2022-11-30T13:29:13.046Z,19
2022-11-30T13:30:13.027Z,18
2022-11-30T13:31:13.061Z,19
2022-11-30T13:32:33.978Z,20
2022-11-30T13:34:13.015Z,18
2022-11-30T13:35:13.027Z,19
2022-11-30T13:36:13.022Z,21
2022-11-30T13:37:13.029Z,23
2022-11-30T13:38:35.967Z,22
2022-11-30T13:39:13.027Z,19
2022-11-30T13:40:13.024Z,18
2022-11-30T13:41:13.019Z,22
2022-11-30T13:42:13.012Z,21
2022-11-30T13:43:13.015Z,19
2022-11-30T13:44:13.043Z,21
2022-11-30T13:45:13.009Z,19
2022-11-30T13:46:13.152Z,19
2022-11-30T13:47:13.029Z,21
2022-11-30T13:48:13.031Z,16
2022-11-30T13:49:13.020Z,18
2022-11-30T13:50:13.027Z,20
2022-11-30T13:51:13.029Z,22
2022-11-30T13:52:22.617Z,20
2022-11-30T13:53:13.066Z,20
2022-11-30T13:54:27.392Z,21
2022-11-30T13:55:13.008Z,21
2022-11-30T13:56:13.000Z,19
2022-11-30T13:57:13.056Z,19
2022-11-30T13:58:13.026Z,19
2022-11-30T13:59:13.031Z,20
2022-11-30T14:00:13.029Z,21
2022-11-30T14:01:13.358Z,22
2022-11-30T14:02:13.083Z,21
2022-11-30T14:03:13.016Z,19
2022-11-30T14:04:13.010Z,20
2022-11-30T14:05:13.015Z,21
2022-11-30T14:06:13.039Z,21
2022-11-30T14:07:13.041Z,21
2022-11-30T14:08:13.034Z,19
2022-11-30T14:09:13.156Z,20
2022-11-30T14:10:13.013Z,20
2022-11-30T14:11:13.052Z,20
2022-11-30T14:12:13.031Z,20
2022-11-30T14:13:13.019Z,21
2022-11-30T14:14:13.016Z,21
2022-11-30T14:15:13.033Z,19
2022-11-30T14:16:13.091Z,22
2022-11-30T14:17:13.029Z,21
2022-11-30T14:18:13.041Z,23
2022-11-30T14:19:13.024Z,24
2022-11-30T14:20:13.018Z,28
2022-11-30T14:21:13.022Z,24
2022-11-30T14:22:13.018Z,21
2022-11-30T14:23:13.020Z,20
2022-11-30T14:25:13.036Z,21
2022-11-30T14:26:13.026Z,25
2022-11-30T14:27:13.016Z,22
2022-11-30T14:28:13.065Z,22
2022-11-30T14:29:13.037Z,22
2022-11-30T14:30:13.037Z,23
2022-11-30T14:31:13.123Z,22
2022-11-30T14:32:13.036Z,21
2022-11-30T14:33:16.620Z,21
2022-11-30T14:34:13.025Z,21
2022-11-30T14:35:13.073Z,24
2022-11-30T14:36:13.037Z,22
2022-11-30T14:37:13.026Z,23
2022-11-30T14:38:13.023Z,24
2022-11-30T14:39:13.025Z,22
2022-11-30T14:40:18.359Z,21
2022-11-30T14:41:13.022Z,21
2022-11-30T14:42:13.026Z,23
2022-11-30T14:43:13.024Z,22
2022-11-30T14:44:13.053Z,22
2022-11-30T14:45:13.052Z,25
2022-11-30T14:46:15.981Z,21
2022-11-30T14:47:13.150Z,22
2022-11-30T14:48:13.040Z,21
2022-11-30T14:49:13.051Z,22
2022-11-30T14:50:13.034Z,22
2022-11-30T14:51:13.024Z,23
2022-11-30T14:52:13.025Z,21
2022-11-30T14:53:13.036Z,22
2022-11-30T14:54:13.025Z,21
2022-11-30T14:55:13.024Z,21
2022-11-30T14:56:13.023Z,22
2022-11-30T14:57:13.056Z,24
2022-11-30T14:58:13.130Z,25
2022-11-30T14:59:13.048Z,23
2022-11-30T15:00:13.030Z,23
2022-11-30T15:01:13.084Z,23
2022-11-30T15:02:13.063Z,24
2022-11-30T15:03:13.032Z,22
2022-11-30T15:04:13.050Z,24
2022-11-30T15:05:13.032Z,22
2022-11-30T15:06:13.028Z,26
2022-11-30T15:07:13.024Z,22
2022-11-30T15:08:13.035Z,24
2022-11-30T15:09:13.024Z,24
2022-11-30T15:10:13.029Z,24
2022-11-30T15:11:13.071Z,24
2022-11-30T15:13:13.057Z,26
2022-11-30T15:14:13.054Z,25
2022-11-30T15:15:13.036Z,24
2022-11-30T15:16:13.109Z,26
2022-11-30T15:17:13.055Z,25
2022-11-30T15:18:13.031Z,24
2022-11-30T15:19:13.031Z,24
2022-11-30T15:20:13.034Z,24
2022-11-30T15:21:13.034Z,21
2022-11-30T15:22:13.068Z,24
2022-11-30T15:23:13.054Z,24
2022-11-30T15:24:13.129Z,24
2022-11-30T15:25:13.033Z,25
2022-11-30T15:26:13.063Z,26
2022-11-30T15:27:13.053Z,23
2022-11-30T15:28:13.026Z,28
2022-11-30T15:29:13.044Z,25
2022-11-30T15:30:13.087Z,21